sensor_id;sensor_type;location;lat;lon;timestamp;P1;durP1;ratioP1;P2;durP2;ratioP2
17844;SDS011;9047;53.486;10.218;2023-04-06T00:01:37;6.10;;;4.10;;
17844;SDS011;9047;53.486;10.218;2023-04-06T00:04:04;6.50;;;4.30;;
17844;SDS011;9047;53.486;10.218;2023-04-06T00:06:34;7.53;;;4.35;;
17844;SDS011;9047;53.486;10.218;2023-04-06T00:09:04;8.82;;;4.53;;
17844;SDS011;9047;53.486;10.218;2023-04-06T00:11:33;7.60;;;4.55;;
17844;SDS011;9047;53.486;10.218;2023-04-06T00:14:00;8.35;;;4.68;;
17844;SDS011;9047;53.486;10.218;2023-04-06T00:16:28;8.23;;;4.45;;
17844;SDS011;9047;53.486;10.218;2023-04-06T00:18:56;8.02;;;4.18;;
17844;SDS011;9047;53.486;10.218;2023-04-06T00:21:23;9.35;;;4.40;;
17844;SDS011;9047;53.486;10.218;2023-04-06T00:23:50;6.25;;;4.20;;
17844;SDS011;9047;53.486;10.218;2023-04-06T00:26:19;6.20;;;3.95;;
17844;SDS011;9047;53.486;10.218;2023-04-06T00:28:46;6.35;;;3.80;;
17844;SDS011;9047;53.486;10.218;2023-04-06T00:31:15;7.93;;;4.13;;
17844;SDS011;9047;53.486;10.218;2023-04-06T00:33:43;7.18;;;4.30;;
17844;SDS011;9047;53.486;10.218;2023-04-06T00:36:10;8.50;;;3.90;;
17844;SDS011;9047;53.486;10.218;2023-04-06T00:38:37;8.88;;;4.30;;
17844;SDS011;9047;53.486;10.218;2023-04-06T00:41:03;7.15;;;4.15;;
17844;SDS011;9047;53.486;10.218;2023-04-06T00:43:32;7.18;;;4.00;;
17844;SDS011;9047;53.486;10.218;2023-04-06T00:45:59;7.05;;;3.63;;
17844;SDS011;9047;53.486;10.218;2023-04-06T00:48:27;6.60;;;4.30;;
17844;SDS011;9047;53.486;10.218;2023-04-06T00:50:55;7.60;;;3.53;;
17844;SDS011;9047;53.486;10.218;2023-04-06T00:53:24;7.55;;;3.80;;
17844;SDS011;9047;53.486;10.218;2023-04-06T00:55:51;6.38;;;3.80;;
17844;SDS011;9047;53.486;10.218;2023-04-06T00:58:19;6.55;;;3.63;;
17844;SDS011;9047;53.486;10.218;2023-04-06T01:00:47;7.63;;;4.05;;
17844;SDS011;9047;53.486;10.218;2023-04-06T01:03:15;8.07;;;3.90;;
17844;SDS011;9047;53.486;10.218;2023-04-06T01:05:42;6.47;;;4.00;;
17844;SDS011;9047;53.486;10.218;2023-04-06T01:08:10;6.80;;;3.47;;
17844;SDS011;9047;53.486;10.218;2023-04-06T01:10:37;6.72;;;3.90;;
17844;SDS011;9047;53.486;10.218;2023-04-06T01:13:04;9.65;;;4.43;;
17844;SDS011;9047;53.486;10.218;2023-04-06T01:15:33;9.52;;;3.92;;
17844;SDS011;9047;53.486;10.218;2023-04-06T01:18:05;8.15;;;4.43;;
17844;SDS011;9047;53.486;10.218;2023-04-06T01:20:33;7.70;;;4.00;;
17844;SDS011;9047;53.486;10.218;2023-04-06T01:23:02;7.20;;;4.10;;
17844;SDS011;9047;53.486;10.218;2023-04-06T01:25:29;6.75;;;3.70;;
17844;SDS011;9047;53.486;10.218;2023-04-06T01:27:57;6.97;;;3.70;;
17844;SDS011;9047;53.486;10.218;2023-04-06T01:30:26;6.60;;;3.67;;
17844;SDS011;9047;53.486;10.218;2023-04-06T01:32:53;7.35;;;4.00;;
17844;SDS011;9047;53.486;10.218;2023-04-06T01:35:20;7.13;;;3.63;;
17844;SDS011;9047;53.486;10.218;2023-04-06T01:37:48;6.30;;;3.80;;
17844;SDS011;9047;53.486;10.218;2023-04-06T01:40:17;7.15;;;4.22;;
17844;SDS011;9047;53.486;10.218;2023-04-06T01:42:45;6.95;;;3.90;;
17844;SDS011;9047;53.486;10.218;2023-04-06T01:45:12;8.27;;;4.18;;
17844;SDS011;9047;53.486;10.218;2023-04-06T01:47:39;7.10;;;3.83;;
17844;SDS011;9047;53.486;10.218;2023-04-06T01:50:07;7.57;;;4.05;;
17844;SDS011;9047;53.486;10.218;2023-04-06T01:52:34;6.28;;;3.88;;
17844;SDS011;9047;53.486;10.218;2023-04-06T01:55:01;7.32;;;3.92;;
17844;SDS011;9047;53.486;10.218;2023-04-06T01:57:33;6.90;;;4.13;;
17844;SDS011;9047;53.486;10.218;2023-04-06T02:00:00;7.18;;;4.00;;
17844;SDS011;9047;53.486;10.218;2023-04-06T02:02:27;6.18;;;3.88;;
17844;SDS011;9047;53.486;10.218;2023-04-06T02:04:54;7.55;;;4.38;;
17844;SDS011;9047;53.486;10.218;2023-04-06T02:07:21;7.78;;;4.13;;
17844;SDS011;9047;53.486;10.218;2023-04-06T02:09:50;7.25;;;4.30;;
17844;SDS011;9047;53.486;10.218;2023-04-06T02:12:20;7.60;;;4.72;;
17844;SDS011;9047;53.486;10.218;2023-04-06T02:14:51;8.32;;;5.20;;
17844;SDS011;9047;53.486;10.218;2023-04-06T02:17:20;8.55;;;5.18;;
17844;SDS011;9047;53.486;10.218;2023-04-06T02:19:47;8.98;;;4.88;;
17844;SDS011;9047;53.486;10.218;2023-04-06T02:22:15;8.85;;;4.90;;
17844;SDS011;9047;53.486;10.218;2023-04-06T02:24:42;10.07;;;5.25;;
17844;SDS011;9047;53.486;10.218;2023-04-06T02:27:09;10.43;;;5.40;;
17844;SDS011;9047;53.486;10.218;2023-04-06T02:29:37;7.75;;;4.97;;
17844;SDS011;9047;53.486;10.218;2023-04-06T02:32:06;8.00;;;5.03;;
17844;SDS011;9047;53.486;10.218;2023-04-06T02:34:33;9.07;;;6.00;;
17844;SDS011;9047;53.486;10.218;2023-04-06T02:37:00;9.48;;;5.45;;
17844;SDS011;9047;53.486;10.218;2023-04-06T02:39:27;8.73;;;6.03;;
17844;SDS011;9047;53.486;10.218;2023-04-06T02:41:56;9.88;;;6.10;;
17844;SDS011;9047;53.486;10.218;2023-04-06T02:44:24;10.07;;;6.03;;
17844;SDS011;9047;53.486;10.218;2023-04-06T02:46:50;11.40;;;6.28;;
17844;SDS011;9047;53.486;10.218;2023-04-06T02:49:19;12.07;;;6.70;;
17844;SDS011;9047;53.486;10.218;2023-04-06T02:51:46;12.00;;;6.30;;
17844;SDS011;9047;53.486;10.218;2023-04-06T02:54:13;12.43;;;6.53;;
17844;SDS011;9047;53.486;10.218;2023-04-06T02:56:40;13.65;;;6.45;;
17844;SDS011;9047;53.486;10.218;2023-04-06T02:59:08;12.55;;;7.25;;
17844;SDS011;9047;53.486;10.218;2023-04-06T03:01:37;14.55;;;7.10;;
17844;SDS011;9047;53.486;10.218;2023-04-06T03:04:05;12.38;;;6.70;;
17844;SDS011;9047;53.486;10.218;2023-04-06T03:06:33;12.10;;;7.10;;
17844;SDS011;9047;53.486;10.218;2023-04-06T03:09:00;13.43;;;7.20;;
17844;SDS011;9047;53.486;10.218;2023-04-06T03:11:27;13.32;;;6.68;;
17844;SDS011;9047;53.486;10.218;2023-04-06T03:13:54;10.75;;;6.57;;
17844;SDS011;9047;53.486;10.218;2023-04-06T03:16:22;12.82;;;7.90;;
17844;SDS011;9047;53.486;10.218;2023-04-06T03:18:49;12.23;;;7.50;;
17844;SDS011;9047;53.486;10.218;2023-04-06T03:21:16;15.48;;;7.20;;
17844;SDS011;9047;53.486;10.218;2023-04-06T03:23:46;13.27;;;7.35;;
17844;SDS011;9047;53.486;10.218;2023-04-06T03:26:14;13.40;;;7.95;;
17844;SDS011;9047;53.486;10.218;2023-04-06T03:28:41;12.95;;;7.70;;
17844;SDS011;9047;53.486;10.218;2023-04-06T03:31:09;13.20;;;8.00;;
17844;SDS011;9047;53.486;10.218;2023-04-06T03:33:36;13.23;;;7.97;;
17844;SDS011;9047;53.486;10.218;2023-04-06T03:36:04;14.75;;;8.60;;
17844;SDS011;9047;53.486;10.218;2023-04-06T03:38:32;17.73;;;8.43;;
17844;SDS011;9047;53.486;10.218;2023-04-06T03:41:02;14.75;;;8.32;;
17844;SDS011;9047;53.486;10.218;2023-04-06T03:43:30;16.48;;;8.73;;
17844;SDS011;9047;53.486;10.218;2023-04-06T03:45:57;15.85;;;8.60;;
17844;SDS011;9047;53.486;10.218;2023-04-06T03:48:24;15.93;;;8.77;;
17844;SDS011;9047;53.486;10.218;2023-04-06T03:50:50;13.80;;;8.80;;
17844;SDS011;9047;53.486;10.218;2023-04-06T03:53:18;16.13;;;8.55;;
17844;SDS011;9047;53.486;10.218;2023-04-06T03:55:45;14.68;;;8.55;;
17844;SDS011;9047;53.486;10.218;2023-04-06T03:58:14;15.50;;;8.35;;
17844;SDS011;9047;53.486;10.218;2023-04-06T04:00:40;16.70;;;9.02;;
17844;SDS011;9047;53.486;10.218;2023-04-06T04:03:13;15.07;;;8.95;;
17844;SDS011;9047;53.486;10.218;2023-04-06T04:05:42;18.58;;;9.20;;
17844;SDS011;9047;53.486;10.218;2023-04-06T04:08:10;15.25;;;8.98;;
17844;SDS011;9047;53.486;10.218;2023-04-06T04:10:37;14.52;;;8.98;;
17844;SDS011;9047;53.486;10.218;2023-04-06T04:13:04;15.18;;;8.82;;
17844;SDS011;9047;53.486;10.218;2023-04-06T04:15:34;18.15;;;9.45;;
17844;SDS011;9047;53.486;10.218;2023-04-06T04:18:01;15.85;;;8.90;;
17844;SDS011;9047;53.486;10.218;2023-04-06T04:20:28;16.52;;;8.95;;
17844;SDS011;9047;53.486;10.218;2023-04-06T04:22:56;16.88;;;9.18;;
17844;SDS011;9047;53.486;10.218;2023-04-06T04:25:23;14.85;;;8.40;;
17844;SDS011;9047;53.486;10.218;2023-04-06T04:27:53;12.90;;;7.90;;
17844;SDS011;9047;53.486;10.218;2023-04-06T04:30:20;13.43;;;6.82;;
17844;SDS011;9047;53.486;10.218;2023-04-06T04:32:48;12.77;;;7.45;;
17844;SDS011;9047;53.486;10.218;2023-04-06T04:35:17;13.20;;;6.70;;
17844;SDS011;9047;53.486;10.218;2023-04-06T04:37:54;11.88;;;6.88;;
17844;SDS011;9047;53.486;10.218;2023-04-06T04:40:23;13.32;;;6.90;;
17844;SDS011;9047;53.486;10.218;2023-04-06T04:42:50;9.93;;;6.30;;
17844;SDS011;9047;53.486;10.218;2023-04-06T04:45:29;12.77;;;6.97;;
17844;SDS011;9047;53.486;10.218;2023-04-06T04:48:00;13.90;;;6.55;;
17844;SDS011;9047;53.486;10.218;2023-04-06T04:50:27;14.02;;;6.57;;
17844;SDS011;9047;53.486;10.218;2023-04-06T04:52:55;9.73;;;6.43;;
17844;SDS011;9047;53.486;10.218;2023-04-06T04:55:24;11.30;;;6.25;;
17844;SDS011;9047;53.486;10.218;2023-04-06T04:57:51;9.65;;;6.88;;
17844;SDS011;9047;53.486;10.218;2023-04-06T05:00:20;11.52;;;7.28;;
17844;SDS011;9047;53.486;10.218;2023-04-06T05:02:48;12.23;;;6.70;;
17844;SDS011;9047;53.486;10.218;2023-04-06T05:05:16;11.98;;;6.53;;
17844;SDS011;9047;53.486;10.218;2023-04-06T05:07:43;12.90;;;6.45;;
17844;SDS011;9047;53.486;10.218;2023-04-06T05:10:12;13.02;;;7.07;;
17844;SDS011;9047;53.486;10.218;2023-04-06T05:12:39;12.93;;;7.18;;
17844;SDS011;9047;53.486;10.218;2023-04-06T05:15:08;13.13;;;6.90;;
17844;SDS011;9047;53.486;10.218;2023-04-06T05:17:35;12.40;;;7.22;;
17844;SDS011;9047;53.486;10.218;2023-04-06T05:20:03;13.02;;;7.25;;
17844;SDS011;9047;53.486;10.218;2023-04-06T05:22:32;14.30;;;8.13;;
17844;SDS011;9047;53.486;10.218;2023-04-06T05:25:00;16.17;;;8.20;;
17844;SDS011;9047;53.486;10.218;2023-04-06T05:27:28;16.20;;;8.40;;
17844;SDS011;9047;53.486;10.218;2023-04-06T05:29:56;11.70;;;7.90;;
17844;SDS011;9047;53.486;10.218;2023-04-06T05:32:23;13.52;;;8.00;;
17844;SDS011;9047;53.486;10.218;2023-04-06T05:34:50;13.65;;;7.82;;
17844;SDS011;9047;53.486;10.218;2023-04-06T05:37:17;15.50;;;8.65;;
17844;SDS011;9047;53.486;10.218;2023-04-06T05:39:46;12.65;;;8.05;;
17844;SDS011;9047;53.486;10.218;2023-04-06T05:42:13;12.75;;;7.85;;
17844;SDS011;9047;53.486;10.218;2023-04-06T05:44:40;13.85;;;8.40;;
17844;SDS011;9047;53.486;10.218;2023-04-06T05:47:07;14.15;;;8.68;;
17844;SDS011;9047;53.486;10.218;2023-04-06T05:49:35;12.10;;;7.47;;
17844;SDS011;9047;53.486;10.218;2023-04-06T05:52:02;12.25;;;7.97;;
17844;SDS011;9047;53.486;10.218;2023-04-06T05:54:29;13.88;;;8.68;;
17844;SDS011;9047;53.486;10.218;2023-04-06T05:57:00;14.27;;;8.18;;
17844;SDS011;9047;53.486;10.218;2023-04-06T05:59:29;14.52;;;9.02;;
17844;SDS011;9047;53.486;10.218;2023-04-06T06:01:56;15.07;;;9.55;;
17844;SDS011;9047;53.486;10.218;2023-04-06T06:04:23;12.80;;;8.60;;
17844;SDS011;9047;53.486;10.218;2023-04-06T06:06:50;14.25;;;8.73;;
17844;SDS011;9047;53.486;10.218;2023-04-06T06:09:17;13.50;;;8.88;;
17844;SDS011;9047;53.486;10.218;2023-04-06T06:11:44;12.13;;;8.25;;
17844;SDS011;9047;53.486;10.218;2023-04-06T06:14:12;12.88;;;7.85;;
17844;SDS011;9047;53.486;10.218;2023-04-06T06:16:39;10.02;;;7.00;;
17844;SDS011;9047;53.486;10.218;2023-04-06T06:19:06;10.15;;;6.90;;
17844;SDS011;9047;53.486;10.218;2023-04-06T06:21:33;13.70;;;7.05;;
17844;SDS011;9047;53.486;10.218;2023-04-06T06:24:00;12.77;;;6.70;;
17844;SDS011;9047;53.486;10.218;2023-04-06T06:26:27;8.05;;;5.97;;
17844;SDS011;9047;53.486;10.218;2023-04-06T06:28:55;8.68;;;6.80;;
17844;SDS011;9047;53.486;10.218;2023-04-06T06:31:23;8.65;;;5.60;;
17844;SDS011;9047;53.486;10.218;2023-04-06T06:33:51;8.75;;;5.90;;
17844;SDS011;9047;53.486;10.218;2023-04-06T06:36:18;8.73;;;5.82;;
17844;SDS011;9047;53.486;10.218;2023-04-06T06:38:45;10.52;;;6.22;;
17844;SDS011;9047;53.486;10.218;2023-04-06T06:41:12;8.75;;;5.88;;
17844;SDS011;9047;53.486;10.218;2023-04-06T06:43:39;8.50;;;5.70;;
17844;SDS011;9047;53.486;10.218;2023-04-06T06:46:06;8.23;;;5.38;;
17844;SDS011;9047;53.486;10.218;2023-04-06T06:48:34;8.85;;;5.97;;
17844;SDS011;9047;53.486;10.218;2023-04-06T06:51:01;10.98;;;5.82;;
17844;SDS011;9047;53.486;10.218;2023-04-06T06:53:28;8.93;;;5.53;;
17844;SDS011;9047;53.486;10.218;2023-04-06T06:55:55;7.38;;;5.63;;
17844;SDS011;9047;53.486;10.218;2023-04-06T06:58:22;10.38;;;6.22;;
17844;SDS011;9047;53.486;10.218;2023-04-06T07:00:50;11.93;;;5.80;;
17844;SDS011;9047;53.486;10.218;2023-04-06T07:03:21;8.98;;;5.50;;
17844;SDS011;9047;53.486;10.218;2023-04-06T07:05:50;9.55;;;5.55;;
17844;SDS011;9047;53.486;10.218;2023-04-06T07:08:18;10.07;;;5.15;;
17844;SDS011;9047;53.486;10.218;2023-04-06T07:10:45;8.25;;;5.25;;
17844;SDS011;9047;53.486;10.218;2023-04-06T07:13:14;7.32;;;5.03;;
17844;SDS011;9047;53.486;10.218;2023-04-06T07:15:45;7.25;;;4.85;;
17844;SDS011;9047;53.486;10.218;2023-04-06T07:18:12;7.35;;;4.88;;
17844;SDS011;9047;53.486;10.218;2023-04-06T07:20:39;8.57;;;4.80;;
17844;SDS011;9047;53.486;10.218;2023-04-06T07:23:07;7.70;;;4.75;;
17844;SDS011;9047;53.486;10.218;2023-04-06T07:25:34;13.43;;;5.05;;
17844;SDS011;9047;53.486;10.218;2023-04-06T07:28:01;10.25;;;5.75;;
17844;SDS011;9047;53.486;10.218;2023-04-06T07:30:28;7.93;;;5.00;;
17844;SDS011;9047;53.486;10.218;2023-04-06T07:32:55;6.28;;;4.80;;
17844;SDS011;9047;53.486;10.218;2023-04-06T07:35:24;8.60;;;4.65;;
17844;SDS011;9047;53.486;10.218;2023-04-06T07:37:51;9.57;;;5.20;;
17844;SDS011;9047;53.486;10.218;2023-04-06T07:40:19;7.03;;;4.75;;
17844;SDS011;9047;53.486;10.218;2023-04-06T07:42:46;7.30;;;4.60;;
17844;SDS011;9047;53.486;10.218;2023-04-06T07:45:13;6.80;;;4.90;;
17844;SDS011;9047;53.486;10.218;2023-04-06T07:47:41;5.88;;;4.45;;
17844;SDS011;9047;53.486;10.218;2023-04-06T07:50:08;8.48;;;4.60;;
17844;SDS011;9047;53.486;10.218;2023-04-06T07:52:35;6.88;;;4.40;;
17844;SDS011;9047;53.486;10.218;2023-04-06T07:55:02;6.28;;;4.60;;
17844;SDS011;9047;53.486;10.218;2023-04-06T07:57:31;7.05;;;4.88;;
17844;SDS011;9047;53.486;10.218;2023-04-06T07:59:58;6.97;;;4.82;;
17844;SDS011;9047;53.486;10.218;2023-04-06T08:02:25;7.47;;;4.78;;
17844;SDS011;9047;53.486;10.218;2023-04-06T08:04:52;7.60;;;4.60;;
17844;SDS011;9047;53.486;10.218;2023-04-06T08:07:19;8.25;;;4.47;;
17844;SDS011;9047;53.486;10.218;2023-04-06T08:09:46;9.25;;;4.20;;
17844;SDS011;9047;53.486;10.218;2023-04-06T08:12:13;5.68;;;4.15;;
17844;SDS011;9047;53.486;10.218;2023-04-06T08:14:42;7.25;;;4.28;;
17844;SDS011;9047;53.486;10.218;2023-04-06T08:17:09;6.80;;;4.40;;
17844;SDS011;9047;53.486;10.218;2023-04-06T08:19:35;9.85;;;5.15;;
17844;SDS011;9047;53.486;10.218;2023-04-06T08:22:02;8.88;;;4.38;;
17844;SDS011;9047;53.486;10.218;2023-04-06T08:24:29;8.52;;;3.97;;
17844;SDS011;9047;53.486;10.218;2023-04-06T08:26:57;6.18;;;4.28;;
17844;SDS011;9047;53.486;10.218;2023-04-06T08:29:25;8.50;;;4.80;;
17844;SDS011;9047;53.486;10.218;2023-04-06T08:31:53;6.32;;;4.30;;
17844;SDS011;9047;53.486;10.218;2023-04-06T08:34:20;8.25;;;4.70;;
17844;SDS011;9047;53.486;10.218;2023-04-06T08:36:48;7.50;;;4.82;;
17844;SDS011;9047;53.486;10.218;2023-04-06T08:39:15;6.18;;;4.78;;
17844;SDS011;9047;53.486;10.218;2023-04-06T08:41:42;7.43;;;5.07;;
17844;SDS011;9047;53.486;10.218;2023-04-06T08:44:10;7.95;;;4.90;;
17844;SDS011;9047;53.486;10.218;2023-04-06T08:46:40;9.00;;;4.75;;
17844;SDS011;9047;53.486;10.218;2023-04-06T08:49:10;7.50;;;4.50;;
17844;SDS011;9047;53.486;10.218;2023-04-06T08:51:38;8.50;;;4.55;;
17844;SDS011;9047;53.486;10.218;2023-04-06T08:54:07;9.52;;;5.07;;
17844;SDS011;9047;53.486;10.218;2023-04-06T08:56:36;8.40;;;4.80;;
17844;SDS011;9047;53.486;10.218;2023-04-06T08:59:06;8.25;;;5.10;;
17844;SDS011;9047;53.486;10.218;2023-04-06T09:01:34;7.38;;;4.72;;
17844;SDS011;9047;53.486;10.218;2023-04-06T09:04:09;6.90;;;4.85;;
17844;SDS011;9047;53.486;10.218;2023-04-06T09:06:37;8.68;;;4.63;;
17844;SDS011;9047;53.486;10.218;2023-04-06T09:09:05;7.72;;;4.50;;
17844;SDS011;9047;53.486;10.218;2023-04-06T09:11:45;7.07;;;4.45;;
17844;SDS011;9047;53.486;10.218;2023-04-06T09:14:13;7.85;;;4.20;;
17844;SDS011;9047;53.486;10.218;2023-04-06T09:16:41;10.23;;;4.75;;
17844;SDS011;9047;53.486;10.218;2023-04-06T09:19:12;8.18;;;4.30;;
17844;SDS011;9047;53.486;10.218;2023-04-06T09:21:39;7.78;;;4.72;;
17844;SDS011;9047;53.486;10.218;2023-04-06T09:24:09;7.80;;;4.25;;
17844;SDS011;9047;53.486;10.218;2023-04-06T09:26:45;7.32;;;4.50;;
17844;SDS011;9047;53.486;10.218;2023-04-06T09:29:21;7.13;;;4.38;;
17844;SDS011;9047;53.486;10.218;2023-04-06T09:31:51;5.97;;;4.18;;
17844;SDS011;9047;53.486;10.218;2023-04-06T09:34:23;6.93;;;3.67;;
17844;SDS011;9047;53.486;10.218;2023-04-06T09:36:49;5.75;;;3.58;;
17844;SDS011;9047;53.486;10.218;2023-04-06T09:39:19;7.28;;;3.60;;
17844;SDS011;9047;53.486;10.218;2023-04-06T09:41:49;6.93;;;3.40;;
17844;SDS011;9047;53.486;10.218;2023-04-06T09:44:17;6.78;;;3.20;;
17844;SDS011;9047;53.486;10.218;2023-04-06T09:46:45;5.10;;;2.70;;
17844;SDS011;9047;53.486;10.218;2023-04-06T09:49:13;7.05;;;3.10;;
17844;SDS011;9047;53.486;10.218;2023-04-06T09:51:44;4.38;;;2.60;;
17844;SDS011;9047;53.486;10.218;2023-04-06T09:54:15;5.07;;;2.92;;
17844;SDS011;9047;53.486;10.218;2023-04-06T09:56:46;4.50;;;3.22;;
17844;SDS011;9047;53.486;10.218;2023-04-06T09:59:18;5.63;;;3.17;;
17844;SDS011;9047;53.486;10.218;2023-04-06T10:01:53;6.70;;;3.30;;
17844;SDS011;9047;53.486;10.218;2023-04-06T10:04:26;4.80;;;3.30;;
17844;SDS011;9047;53.486;10.218;2023-04-06T10:07:01;6.25;;;3.80;;
17844;SDS011;9047;53.486;10.218;2023-04-06T10:09:29;6.93;;;3.90;;
17844;SDS011;9047;53.486;10.218;2023-04-06T10:12:01;7.78;;;4.10;;
17844;SDS011;9047;53.486;10.218;2023-04-06T10:14:31;7.80;;;4.20;;
17844;SDS011;9047;53.486;10.218;2023-04-06T10:16:59;5.82;;;3.83;;
17844;SDS011;9047;53.486;10.218;2023-04-06T10:19:28;5.63;;;3.80;;
17844;SDS011;9047;53.486;10.218;2023-04-06T10:22:15;7.00;;;4.07;;
17844;SDS011;9047;53.486;10.218;2023-04-06T10:24:52;9.20;;;4.38;;
17844;SDS011;9047;53.486;10.218;2023-04-06T10:27:27;6.63;;;4.05;;
17844;SDS011;9047;53.486;10.218;2023-04-06T10:29:54;9.80;;;4.15;;
17844;SDS011;9047;53.486;10.218;2023-04-06T10:32:31;5.60;;;4.13;;
17844;SDS011;9047;53.486;10.218;2023-04-06T10:35:08;6.30;;;3.97;;
17844;SDS011;9047;53.486;10.218;2023-04-06T10:37:48;7.35;;;4.53;;
17844;SDS011;9047;53.486;10.218;2023-04-06T10:40:17;8.50;;;4.43;;
17844;SDS011;9047;53.486;10.218;2023-04-06T10:42:46;7.50;;;4.53;;
17844;SDS011;9047;53.486;10.218;2023-04-06T10:45:19;8.82;;;4.20;;
17844;SDS011;9047;53.486;10.218;2023-04-06T10:47:48;8.82;;;4.72;;
17844;SDS011;9047;53.486;10.218;2023-04-06T10:50:15;8.20;;;4.47;;
17844;SDS011;9047;53.486;10.218;2023-04-06T10:52:43;7.65;;;4.57;;
17844;SDS011;9047;53.486;10.218;2023-04-06T10:55:13;6.45;;;4.35;;
17844;SDS011;9047;53.486;10.218;2023-04-06T10:57:41;6.05;;;4.72;;
17844;SDS011;9047;53.486;10.218;2023-04-06T11:00:08;7.25;;;4.82;;
17844;SDS011;9047;53.486;10.218;2023-04-06T11:02:37;8.65;;;5.18;;
17844;SDS011;9047;53.486;10.218;2023-04-06T11:05:05;8.38;;;5.10;;
17844;SDS011;9047;53.486;10.218;2023-04-06T11:07:33;8.00;;;5.25;;
17844;SDS011;9047;53.486;10.218;2023-04-06T11:10:00;8.90;;;5.40;;
17844;SDS011;9047;53.486;10.218;2023-04-06T11:12:28;7.55;;;4.85;;
17844;SDS011;9047;53.486;10.218;2023-04-06T11:14:56;7.75;;;5.10;;
17844;SDS011;9047;53.486;10.218;2023-04-06T11:17:27;6.95;;;5.03;;
17844;SDS011;9047;53.486;10.218;2023-04-06T11:19:55;7.72;;;5.18;;
17844;SDS011;9047;53.486;10.218;2023-04-06T11:22:22;8.80;;;5.40;;
17844;SDS011;9047;53.486;10.218;2023-04-06T11:24:49;8.40;;;5.97;;
17844;SDS011;9047;53.486;10.218;2023-04-06T11:27:18;8.32;;;5.20;;
17844;SDS011;9047;53.486;10.218;2023-04-06T11:29:47;10.27;;;5.93;;
17844;SDS011;9047;53.486;10.218;2023-04-06T11:32:21;8.30;;;5.43;;
17844;SDS011;9047;53.486;10.218;2023-04-06T11:34:49;8.40;;;5.60;;
17844;SDS011;9047;53.486;10.218;2023-04-06T11:37:16;8.18;;;5.80;;
17844;SDS011;9047;53.486;10.218;2023-04-06T11:39:46;10.32;;;5.88;;
17844;SDS011;9047;53.486;10.218;2023-04-06T11:42:22;8.95;;;5.65;;
17844;SDS011;9047;53.486;10.218;2023-04-06T11:44:51;11.68;;;6.30;;
17844;SDS011;9047;53.486;10.218;2023-04-06T11:47:20;10.90;;;5.95;;
17844;SDS011;9047;53.486;10.218;2023-04-06T11:49:53;9.68;;;6.03;;
17844;SDS011;9047;53.486;10.218;2023-04-06T11:52:20;9.35;;;6.07;;
17844;SDS011;9047;53.486;10.218;2023-04-06T11:54:49;10.02;;;5.70;;
17844;SDS011;9047;53.486;10.218;2023-04-06T11:57:18;8.65;;;5.68;;
17844;SDS011;9047;53.486;10.218;2023-04-06T11:59:45;9.82;;;5.90;;
17844;SDS011;9047;53.486;10.218;2023-04-06T12:02:14;10.77;;;6.53;;
17844;SDS011;9047;53.486;10.218;2023-04-06T12:04:42;8.57;;;5.63;;
17844;SDS011;9047;53.486;10.218;2023-04-06T12:07:10;8.55;;;5.88;;
17844;SDS011;9047;53.486;10.218;2023-04-06T12:09:36;9.68;;;5.85;;
17844;SDS011;9047;53.486;10.218;2023-04-06T12:12:05;8.75;;;6.03;;
17844;SDS011;9047;53.486;10.218;2023-04-06T12:14:31;9.25;;;6.15;;
17844;SDS011;9047;53.486;10.218;2023-04-06T12:16:58;9.23;;;5.97;;
17844;SDS011;9047;53.486;10.218;2023-04-06T12:19:26;7.82;;;5.47;;
17844;SDS011;9047;53.486;10.218;2023-04-06T12:21:54;10.13;;;6.45;;
17844;SDS011;9047;53.486;10.218;2023-04-06T12:24:21;10.52;;;5.90;;
17844;SDS011;9047;53.486;10.218;2023-04-06T12:26:50;7.40;;;5.63;;
17844;SDS011;9047;53.486;10.218;2023-04-06T12:29:16;8.63;;;5.97;;
17844;SDS011;9047;53.486;10.218;2023-04-06T12:31:44;9.55;;;6.00;;
17844;SDS011;9047;53.486;10.218;2023-04-06T12:34:11;11.25;;;5.97;;
17844;SDS011;9047;53.486;10.218;2023-04-06T12:36:39;9.25;;;6.07;;
17844;SDS011;9047;53.486;10.218;2023-04-06T12:39:06;11.35;;;6.18;;
17844;SDS011;9047;53.486;10.218;2023-04-06T12:41:36;8.40;;;5.50;;
17844;SDS011;9047;53.486;10.218;2023-04-06T12:44:05;9.40;;;5.70;;
17844;SDS011;9047;53.486;10.218;2023-04-06T12:46:32;10.32;;;6.25;;
17844;SDS011;9047;53.486;10.218;2023-04-06T12:49:00;9.75;;;5.22;;
17844;SDS011;9047;53.486;10.218;2023-04-06T12:51:28;8.93;;;5.93;;
17844;SDS011;9047;53.486;10.218;2023-04-06T12:53:58;7.72;;;5.57;;
17844;SDS011;9047;53.486;10.218;2023-04-06T12:56:26;8.45;;;6.00;;
17844;SDS011;9047;53.486;10.218;2023-04-06T12:58:54;9.57;;;5.75;;
17844;SDS011;9047;53.486;10.218;2023-04-06T13:01:24;9.18;;;5.90;;
17844;SDS011;9047;53.486;10.218;2023-04-06T13:03:52;9.23;;;5.90;;
17844;SDS011;9047;53.486;10.218;2023-04-06T13:06:19;8.23;;;5.38;;
17844;SDS011;9047;53.486;10.218;2023-04-06T13:08:46;9.25;;;5.95;;
17844;SDS011;9047;53.486;10.218;2023-04-06T13:11:19;9.00;;;5.70;;
17844;SDS011;9047;53.486;10.218;2023-04-06T13:13:48;7.43;;;5.38;;
17844;SDS011;9047;53.486;10.218;2023-04-06T13:16:14;8.73;;;6.25;;
17844;SDS011;9047;53.486;10.218;2023-04-06T13:18:41;7.88;;;6.10;;
17844;SDS011;9047;53.486;10.218;2023-04-06T13:21:08;9.50;;;5.72;;
17844;SDS011;9047;53.486;10.218;2023-04-06T13:23:35;8.45;;;6.25;;
17844;SDS011;9047;53.486;10.218;2023-04-06T13:26:03;11.60;;;5.72;;
17844;SDS011;9047;53.486;10.218;2023-04-06T13:28:36;8.00;;;5.78;;
17844;SDS011;9047;53.486;10.218;2023-04-06T13:31:04;11.07;;;6.40;;
17844;SDS011;9047;53.486;10.218;2023-04-06T13:33:31;10.15;;;6.25;;
17844;SDS011;9047;53.486;10.218;2023-04-06T13:35:59;8.90;;;6.53;;
17844;SDS011;9047;53.486;10.218;2023-04-06T13:38:26;8.45;;;6.32;;
17844;SDS011;9047;53.486;10.218;2023-04-06T13:40:54;10.27;;;6.68;;
17844;SDS011;9047;53.486;10.218;2023-04-06T13:43:21;9.05;;;6.70;;
17844;SDS011;9047;53.486;10.218;2023-04-06T13:45:53;9.48;;;6.43;;
17844;SDS011;9047;53.486;10.218;2023-04-06T13:48:21;9.70;;;6.57;;
17844;SDS011;9047;53.486;10.218;2023-04-06T13:50:48;9.20;;;6.80;;
17844;SDS011;9047;53.486;10.218;2023-04-06T13:53:15;7.95;;;6.13;;
17844;SDS011;9047;53.486;10.218;2023-04-06T13:55:42;9.48;;;6.55;;
17844;SDS011;9047;53.486;10.218;2023-04-06T13:58:10;8.48;;;5.88;;
17844;SDS011;9047;53.486;10.218;2023-04-06T14:00:37;8.55;;;6.47;;
17844;SDS011;9047;53.486;10.218;2023-04-06T14:03:06;10.00;;;6.38;;
17844;SDS011;9047;53.486;10.218;2023-04-06T14:05:34;12.75;;;6.72;;
17844;SDS011;9047;53.486;10.218;2023-04-06T14:08:01;10.43;;;6.32;;
17844;SDS011;9047;53.486;10.218;2023-04-06T14:10:28;8.85;;;6.05;;
17844;SDS011;9047;53.486;10.218;2023-04-06T14:12:57;7.93;;;5.93;;
17844;SDS011;9047;53.486;10.218;2023-04-06T14:15:24;8.35;;;5.88;;
17844;SDS011;9047;53.486;10.218;2023-04-06T14:17:52;9.40;;;6.15;;
17844;SDS011;9047;53.486;10.218;2023-04-06T14:20:21;10.20;;;6.88;;
17844;SDS011;9047;53.486;10.218;2023-04-06T14:22:50;9.30;;;6.68;;
17844;SDS011;9047;53.486;10.218;2023-04-06T14:25:19;8.05;;;6.50;;
17844;SDS011;9047;53.486;10.218;2023-04-06T14:27:49;8.52;;;6.30;;
17844;SDS011;9047;53.486;10.218;2023-04-06T14:30:16;9.00;;;6.05;;
17844;SDS011;9047;53.486;10.218;2023-04-06T14:32:43;10.85;;;6.07;;
17844;SDS011;9047;53.486;10.218;2023-04-06T14:35:10;10.68;;;6.35;;
17844;SDS011;9047;53.486;10.218;2023-04-06T14:37:38;9.35;;;6.18;;
17844;SDS011;9047;53.486;10.218;2023-04-06T14:40:06;8.77;;;6.05;;
17844;SDS011;9047;53.486;10.218;2023-04-06T14:42:35;10.60;;;6.60;;
17844;SDS011;9047;53.486;10.218;2023-04-06T14:45:03;11.32;;;6.72;;
17844;SDS011;9047;53.486;10.218;2023-04-06T14:47:31;8.75;;;6.28;;
17844;SDS011;9047;53.486;10.218;2023-04-06T14:49:58;10.02;;;6.82;;